sensor_id;sensor_type;location;lat;lon;timestamp;P1;durP1;ratioP1;P2;durP2;ratioP2
11319;SDS011;5715;48.234;14.320;2023-01-29T00:01:29;4.70;;;4.30;;
11319;SDS011;5715;48.234;14.320;2023-01-29T00:04:17;5.80;;;3.77;;
11319;SDS011;5715;48.234;14.320;2023-01-29T00:07:06;6.53;;;4.37;;
11319;SDS011;5715;48.234;14.320;2023-01-29T00:09:54;5.07;;;3.53;;
11319;SDS011;5715;48.234;14.320;2023-01-29T00:12:41;5.40;;;4.90;;
11319;SDS011;5715;48.234;14.320;2023-01-29T00:15:29;6.03;;;4.77;;
11319;SDS011;5715;48.234;14.320;2023-01-29T00:18:16;5.50;;;4.10;;
11319;SDS011;5715;48.234;14.320;2023-01-29T00:21:07;7.23;;;4.63;;
11319;SDS011;5715;48.234;14.320;2023-01-29T00:24:01;5.77;;;4.53;;
11319;SDS011;5715;48.234;14.320;2023-01-29T00:26:48;5.57;;;3.70;;
11319;SDS011;5715;48.234;14.320;2023-01-29T00:29:36;4.23;;;3.13;;
11319;SDS011;5715;48.234;14.320;2023-01-29T00:32:23;9.60;;;5.87;;
11319;SDS011;5715;48.234;14.320;2023-01-29T00:35:11;5.87;;;4.10;;
11319;SDS011;5715;48.234;14.320;2023-01-29T00:37:58;5.87;;;4.43;;
11319;SDS011;5715;48.234;14.320;2023-01-29T00:40:46;7.40;;;3.70;;
11319;SDS011;5715;48.234;14.320;2023-01-29T00:43:52;2.73;;;2.53;;
11319;SDS011;5715;48.234;14.320;2023-01-29T00:46:59;5.60;;;4.10;;
11319;SDS011;5715;48.234;14.320;2023-01-29T00:49:47;7.80;;;4.67;;
11319;SDS011;5715;48.234;14.320;2023-01-29T00:52:34;5.43;;;3.60;;
11319;SDS011;5715;48.234;14.320;2023-01-29T00:55:22;4.20;;;3.23;;
11319;SDS011;5715;48.234;14.320;2023-01-29T00:58:10;10.13;;;4.83;;
11319;SDS011;5715;48.234;14.320;2023-01-29T01:00:57;8.90;;;5.47;;
11319;SDS011;5715;48.234;14.320;2023-01-29T01:03:46;4.60;;;3.77;;
11319;SDS011;5715;48.234;14.320;2023-01-29T01:06:37;20.63;;;3.80;;
11319;SDS011;5715;48.234;14.320;2023-01-29T01:09:27;8.37;;;4.90;;
11319;SDS011;5715;48.234;14.320;2023-01-29T01:12:33;6.53;;;5.87;;
11319;SDS011;5715;48.234;14.320;2023-01-29T01:15:21;6.33;;;4.83;;
11319;SDS011;5715;48.234;14.320;2023-01-29T01:18:13;8.57;;;3.97;;
11319;SDS011;5715;48.234;14.320;2023-01-29T01:21:01;9.63;;;6.33;;
11319;SDS011;5715;48.234;14.320;2023-01-29T01:23:49;10.33;;;4.03;;
11319;SDS011;5715;48.234;14.320;2023-01-29T01:26:37;7.20;;;4.63;;
11319;SDS011;5715;48.234;14.320;2023-01-29T01:29:25;7.47;;;4.53;;
11319;SDS011;5715;48.234;14.320;2023-01-29T01:32:13;4.43;;;4.03;;
11319;SDS011;5715;48.234;14.320;2023-01-29T01:35:01;5.30;;;3.97;;
11319;SDS011;5715;48.234;14.320;2023-01-29T01:37:49;8.37;;;3.07;;
11319;SDS011;5715;48.234;14.320;2023-01-29T01:40:42;8.50;;;4.33;;
11319;SDS011;5715;48.234;14.320;2023-01-29T01:43:47;5.10;;;3.30;;
11319;SDS011;5715;48.234;14.320;2023-01-29T01:46:39;7.57;;;5.80;;
11319;SDS011;5715;48.234;14.320;2023-01-29T01:49:27;6.77;;;5.70;;
11319;SDS011;5715;48.234;14.320;2023-01-29T01:52:15;5.13;;;4.13;;
11319;SDS011;5715;48.234;14.320;2023-01-29T01:55:05;12.37;;;4.43;;
11319;SDS011;5715;48.234;14.320;2023-01-29T01:58:02;3.40;;;3.10;;
11319;SDS011;5715;48.234;14.320;2023-01-29T02:00:57;11.70;;;4.30;;
11319;SDS011;5715;48.234;14.320;2023-01-29T02:03:56;5.90;;;3.70;;
11319;SDS011;5715;48.234;14.320;2023-01-29T02:07:13;4.47;;;4.10;;
11319;SDS011;5715;48.234;14.320;2023-01-29T02:10:20;5.13;;;3.77;;
11319;SDS011;5715;48.234;14.320;2023-01-29T02:13:08;4.37;;;3.97;;
11319;SDS011;5715;48.234;14.320;2023-01-29T02:15:58;3.93;;;3.37;;
11319;SDS011;5715;48.234;14.320;2023-01-29T02:18:46;3.83;;;2.90;;
11319;SDS011;5715;48.234;14.320;2023-01-29T02:40:57;5.07;;;3.10;;
11319;SDS011;5715;48.234;14.320;2023-01-29T02:44:22;5.40;;;4.40;;
11319;SDS011;5715;48.234;14.320;2023-01-29T02:50:38;10.90;;;3.40;;
11319;SDS011;5715;48.234;14.320;2023-01-29T02:53:37;2.60;;;2.40;;
11319;SDS011;5715;48.234;14.320;2023-01-29T02:56:36;3.87;;;3.00;;
11319;SDS011;5715;48.234;14.320;2023-01-29T02:59:45;2.43;;;2.23;;
11319;SDS011;5715;48.234;14.320;2023-01-29T03:03:41;4.07;;;3.53;;
11319;SDS011;5715;48.234;14.320;2023-01-29T03:06:22;8.57;;;3.67;;
11319;SDS011;5715;48.234;14.320;2023-01-29T03:09:20;2.80;;;2.60;;
11319;SDS011;5715;48.234;14.320;2023-01-29T03:12:19;7.53;;;3.20;;
11319;SDS011;5715;48.234;14.320;2023-01-29T03:15:23;4.70;;;3.13;;
11319;SDS011;5715;48.234;14.320;2023-01-29T03:18:24;5.43;;;4.10;;
11319;SDS011;5715;48.234;14.320;2023-01-29T03:21:32;4.03;;;2.90;;
11319;SDS011;5715;48.234;14.320;2023-01-29T03:25:02;3.37;;;3.03;;
11319;SDS011;5715;48.234;14.320;2023-01-29T03:28:13;5.27;;;4.63;;
11319;SDS011;5715;48.234;14.320;2023-01-29T03:31:22;3.37;;;3.07;;
11319;SDS011;5715;48.234;14.320;2023-01-29T03:34:41;4.63;;;3.40;;
11319;SDS011;5715;48.234;14.320;2023-01-29T03:37:42;8.93;;;4.87;;
11319;SDS011;5715;48.234;14.320;2023-01-29T03:44:09;5.23;;;3.60;;
11319;SDS011;5715;48.234;14.320;2023-01-29T03:47:20;5.07;;;4.23;;
11319;SDS011;5715;48.234;14.320;2023-01-29T03:53:52;5.87;;;4.23;;
11319;SDS011;5715;48.234;14.320;2023-01-29T03:57:05;5.37;;;3.53;;
11319;SDS011;5715;48.234;14.320;2023-01-29T04:03:55;4.67;;;3.30;;
11319;SDS011;5715;48.234;14.320;2023-01-29T04:07:16;6.63;;;3.50;;
11319;SDS011;5715;48.234;14.320;2023-01-29T04:10:11;4.40;;;3.17;;
11319;SDS011;5715;48.234;14.320;2023-01-29T04:13:05;7.27;;;4.17;;
11319;SDS011;5715;48.234;14.320;2023-01-29T04:15:58;3.20;;;2.83;;
11319;SDS011;5715;48.234;14.320;2023-01-29T04:18:49;5.10;;;4.03;;
11319;SDS011;5715;48.234;14.320;2023-01-29T04:21:40;3.77;;;3.43;;
11319;SDS011;5715;48.234;14.320;2023-01-29T04:24:28;4.63;;;3.47;;
11319;SDS011;5715;48.234;14.320;2023-01-29T04:39:39;2.77;;;2.57;;
11319;SDS011;5715;48.234;14.320;2023-01-29T04:42:53;7.33;;;4.40;;
11319;SDS011;5715;48.234;14.320;2023-01-29T04:46:25;5.63;;;4.33;;
11319;SDS011;5715;48.234;14.320;2023-01-29T04:49:33;3.03;;;2.73;;
11319;SDS011;5715;48.234;14.320;2023-01-29T04:55:41;4.63;;;3.53;;
11319;SDS011;5715;48.234;14.320;2023-01-29T04:58:53;6.00;;;4.17;;
11319;SDS011;5715;48.234;14.320;2023-01-29T05:01:49;10.10;;;5.10;;
11319;SDS011;5715;48.234;14.320;2023-01-29T05:04:39;3.97;;;3.57;;
11319;SDS011;5715;48.234;14.320;2023-01-29T05:07:30;3.23;;;2.43;;
11319;SDS011;5715;48.234;14.320;2023-01-29T05:10:21;6.07;;;3.37;;
11319;SDS011;5715;48.234;14.320;2023-01-29T05:13:11;9.80;;;3.93;;
11319;SDS011;5715;48.234;14.320;2023-01-29T05:16:03;6.40;;;4.30;;
11319;SDS011;5715;48.234;14.320;2023-01-29T05:19:00;9.57;;;4.73;;
11319;SDS011;5715;48.234;14.320;2023-01-29T05:21:48;6.63;;;3.73;;
11319;SDS011;5715;48.234;14.320;2023-01-29T05:24:36;8.40;;;4.83;;
11319;SDS011;5715;48.234;14.320;2023-01-29T05:27:28;4.53;;;3.90;;
11319;SDS011;5715;48.234;14.320;2023-01-29T05:30:39;4.03;;;3.63;;
11319;SDS011;5715;48.234;14.320;2023-01-29T05:33:28;5.23;;;3.83;;
11319;SDS011;5715;48.234;14.320;2023-01-29T05:36:17;4.80;;;3.87;;
11319;SDS011;5715;48.234;14.320;2023-01-29T05:39:05;5.83;;;4.23;;
11319;SDS011;5715;48.234;14.320;2023-01-29T05:41:52;9.33;;;4.60;;
11319;SDS011;5715;48.234;14.320;2023-01-29T05:44:40;7.27;;;5.90;;
11319;SDS011;5715;48.234;14.320;2023-01-29T05:47:27;2.57;;;2.37;;
11319;SDS011;5715;48.234;14.320;2023-01-29T05:50:15;5.47;;;4.03;;
11319;SDS011;5715;48.234;14.320;2023-01-29T05:53:03;6.67;;;4.43;;
11319;SDS011;5715;48.234;14.320;2023-01-29T05:55:52;4.50;;;4.00;;
11319;SDS011;5715;48.234;14.320;2023-01-29T05:58:39;12.83;;;5.73;;
11319;SDS011;5715;48.234;14.320;2023-01-29T06:01:27;4.03;;;3.47;;
11319;SDS011;5715;48.234;14.320;2023-01-29T06:04:14;3.87;;;3.40;;
11319;SDS011;5715;48.234;14.320;2023-01-29T06:07:02;4.73;;;4.00;;
11319;SDS011;5715;48.234;14.320;2023-01-29T06:09:50;4.30;;;3.90;;
11319;SDS011;5715;48.234;14.320;2023-01-29T06:12:38;9.43;;;5.27;;
11319;SDS011;5715;48.234;14.320;2023-01-29T06:15:27;5.53;;;3.37;;
11319;SDS011;5715;48.234;14.320;2023-01-29T06:18:14;3.10;;;2.80;;
11319;SDS011;5715;48.234;14.320;2023-01-29T06:21:02;6.57;;;4.17;;
11319;SDS011;5715;48.234;14.320;2023-01-29T06:23:53;4.47;;;3.90;;
11319;SDS011;5715;48.234;14.320;2023-01-29T06:26:40;5.77;;;4.50;;
11319;SDS011;5715;48.234;14.320;2023-01-29T06:29:28;5.97;;;4.10;;
11319;SDS011;5715;48.234;14.320;2023-01-29T06:32:16;2.47;;;2.27;;
11319;SDS011;5715;48.234;14.320;2023-01-29T06:35:03;5.53;;;5.03;;
11319;SDS011;5715;48.234;14.320;2023-01-29T06:37:52;7.80;;;4.13;;
11319;SDS011;5715;48.234;14.320;2023-01-29T06:40:40;3.97;;;3.23;;
11319;SDS011;5715;48.234;14.320;2023-01-29T06:43:27;11.53;;;5.83;;
11319;SDS011;5715;48.234;14.320;2023-01-29T06:46:15;5.13;;;2.83;;
11319;SDS011;5715;48.234;14.320;2023-01-29T06:49:02;9.60;;;4.47;;
11319;SDS011;5715;48.234;14.320;2023-01-29T06:51:50;4.90;;;3.63;;
11319;SDS011;5715;48.234;14.320;2023-01-29T06:54:37;9.53;;;4.03;;
11319;SDS011;5715;48.234;14.320;2023-01-29T06:57:27;4.67;;;4.23;;
11319;SDS011;5715;48.234;14.320;2023-01-29T07:00:15;2.70;;;2.50;;
11319;SDS011;5715;48.234;14.320;2023-01-29T07:03:04;5.60;;;3.17;;
11319;SDS011;5715;48.234;14.320;2023-01-29T07:05:52;7.07;;;4.73;;
11319;SDS011;5715;48.234;14.320;2023-01-29T07:08:39;5.23;;;3.73;;
11319;SDS011;5715;48.234;14.320;2023-01-29T07:11:27;3.53;;;3.07;;
11319;SDS011;5715;48.234;14.320;2023-01-29T07:14:14;4.80;;;3.13;;
11319;SDS011;5715;48.234;14.320;2023-01-29T07:17:02;5.30;;;3.30;;
11319;SDS011;5715;48.234;14.320;2023-01-29T07:19:49;8.00;;;4.13;;
11319;SDS011;5715;48.234;14.320;2023-01-29T07:22:37;7.03;;;3.73;;
11319;SDS011;5715;48.234;14.320;2023-01-29T07:25:25;6.33;;;3.90;;
11319;SDS011;5715;48.234;14.320;2023-01-29T07:28:12;8.07;;;4.47;;
11319;SDS011;5715;48.234;14.320;2023-01-29T07:30:59;5.00;;;3.20;;
11319;SDS011;5715;48.234;14.320;2023-01-29T07:33:47;3.87;;;3.30;;
11319;SDS011;5715;48.234;14.320;2023-01-29T07:36:35;6.37;;;4.00;;
11319;SDS011;5715;48.234;14.320;2023-01-29T07:39:22;5.90;;;3.70;;
11319;SDS011;5715;48.234;14.320;2023-01-29T07:42:10;4.57;;;3.77;;
11319;SDS011;5715;48.234;14.320;2023-01-29T07:44:58;3.60;;;3.30;;
11319;SDS011;5715;48.234;14.320;2023-01-29T07:47:49;2.87;;;2.67;;
11319;SDS011;5715;48.234;14.320;2023-01-29T07:50:40;3.63;;;2.93;;
11319;SDS011;5715;48.234;14.320;2023-01-29T07:53:29;3.30;;;3.00;;
11319;SDS011;5715;48.234;14.320;2023-01-29T07:56:17;4.70;;;3.33;;
11319;SDS011;5715;48.234;14.320;2023-01-29T07:59:05;3.77;;;3.23;;
11319;SDS011;5715;48.234;14.320;2023-01-29T08:01:52;4.07;;;2.63;;
11319;SDS011;5715;48.234;14.320;2023-01-29T08:04:40;4.87;;;3.50;;
11319;SDS011;5715;48.234;14.320;2023-01-29T08:07:27;3.73;;;2.63;;
11319;SDS011;5715;48.234;14.320;2023-01-29T08:10:15;4.67;;;3.70;;
11319;SDS011;5715;48.234;14.320;2023-01-29T08:13:03;3.23;;;3.03;;
11319;SDS011;5715;48.234;14.320;2023-01-29T08:15:52;4.10;;;2.87;;
11319;SDS011;5715;48.234;14.320;2023-01-29T08:18:39;3.53;;;2.93;;
11319;SDS011;5715;48.234;14.320;2023-01-29T08:21:29;2.40;;;2.23;;
11319;SDS011;5715;48.234;14.320;2023-01-29T08:24:17;2.57;;;2.37;;
11319;SDS011;5715;48.234;14.320;2023-01-29T08:27:04;2.57;;;2.10;;
11319;SDS011;5715;48.234;14.320;2023-01-29T08:29:52;4.27;;;3.07;;
11319;SDS011;5715;48.234;14.320;2023-01-29T08:32:39;2.60;;;2.37;;
11319;SDS011;5715;48.234;14.320;2023-01-29T08:35:27;2.90;;;2.53;;
11319;SDS011;5715;48.234;14.320;2023-01-29T08:38:14;5.20;;;3.07;;
11319;SDS011;5715;48.234;14.320;2023-01-29T08:41:03;3.30;;;2.80;;
11319;SDS011;5715;48.234;14.320;2023-01-29T08:43:52;3.13;;;2.83;;
11319;SDS011;5715;48.234;14.320;2023-01-29T08:46:39;2.70;;;2.07;;
11319;SDS011;5715;48.234;14.320;2023-01-29T08:49:27;2.83;;;2.53;;
11319;SDS011;5715;48.234;14.320;2023-01-29T08:52:14;2.90;;;2.50;;
11319;SDS011;5715;48.234;14.320;2023-01-29T08:55:02;3.70;;;3.23;;
11319;SDS011;5715;48.234;14.320;2023-01-29T08:57:49;3.67;;;2.13;;
11319;SDS011;5715;48.234;14.320;2023-01-29T09:00:37;2.17;;;2.07;;
11319;SDS011;5715;48.234;14.320;2023-01-29T09:03:25;4.87;;;2.37;;
11319;SDS011;5715;48.234;14.320;2023-01-29T09:06:13;2.30;;;2.03;;
11319;SDS011;5715;48.234;14.320;2023-01-29T09:09:01;3.87;;;3.50;;
11319;SDS011;5715;48.234;14.320;2023-01-29T09:11:48;3.10;;;2.53;;
11319;SDS011;5715;48.234;14.320;2023-01-29T09:14:36;3.27;;;2.93;;
11319;SDS011;5715;48.234;14.320;2023-01-29T09:17:23;2.20;;;2.00;;
11319;SDS011;5715;48.234;14.320;2023-01-29T09:20:11;2.43;;;2.20;;
11319;SDS011;5715;48.234;14.320;2023-01-29T09:23:02;3.23;;;2.40;;
11319;SDS011;5715;48.234;14.320;2023-01-29T09:25:52;3.40;;;2.67;;
11319;SDS011;5715;48.234;14.320;2023-01-29T09:28:40;2.90;;;2.60;;
11319;SDS011;5715;48.234;14.320;2023-01-29T09:31:27;2.63;;;2.43;;
11319;SDS011;5715;48.234;14.320;2023-01-29T09:34:15;1.97;;;1.87;;
11319;SDS011;5715;48.234;14.320;2023-01-29T09:37:03;4.47;;;3.27;;
11319;SDS011;5715;48.234;14.320;2023-01-29T09:39:50;3.93;;;2.70;;
11319;SDS011;5715;48.234;14.320;2023-01-29T09:42:49;4.97;;;2.27;;
11319;SDS011;5715;48.234;14.320;2023-01-29T09:46:51;3.03;;;2.70;;
11319;SDS011;5715;48.234;14.320;2023-01-29T09:49:35;1.93;;;1.70;;
11319;SDS011;5715;48.234;14.320;2023-01-29T09:52:42;1.90;;;1.80;;
11319;SDS011;5715;48.234;14.320;2023-01-29T09:55:42;1.67;;;1.57;;
11319;SDS011;5715;48.234;14.320;2023-01-29T09:58:49;2.57;;;2.27;;
11319;SDS011;5715;48.234;14.320;2023-01-29T10:05:01;2.50;;;1.73;;
11319;SDS011;5715;48.234;14.320;2023-01-29T10:14:22;2.03;;;1.87;;
11319;SDS011;5715;48.234;14.320;2023-01-29T10:17:41;3.70;;;2.40;;
11319;SDS011;5715;48.234;14.320;2023-01-29T10:27:40;2.23;;;1.93;;
11319;SDS011;5715;48.234;14.320;2023-01-29T10:30:37;2.53;;;2.33;;
11319;SDS011;5715;48.234;14.320;2023-01-29T10:33:41;1.83;;;1.60;;
11319;SDS011;5715;48.234;14.320;2023-01-29T10:36:49;5.23;;;1.90;;
11319;SDS011;5715;48.234;14.320;2023-01-29T10:39:36;1.93;;;1.60;;
11319;SDS011;5715;48.234;14.320;2023-01-29T10:42:41;1.50;;;1.40;;
11319;SDS011;5715;48.234;14.320;2023-01-29T10:45:48;8.23;;;2.33;;
11319;SDS011;5715;48.234;14.320;2023-01-29T10:49:00;3.60;;;2.43;;
11319;SDS011;5715;48.234;14.320;2023-01-29T10:58:27;1.93;;;1.73;;
11319;SDS011;5715;48.234;14.320;2023-01-29T11:01:37;6.03;;;2.13;;
11319;SDS011;5715;48.234;14.320;2023-01-29T11:04:25;2.73;;;1.83;;
11319;SDS011;5715;48.234;14.320;2023-01-29T11:07:17;3.67;;;2.03;;
11319;SDS011;5715;48.234;14.320;2023-01-29T11:10:09;2.93;;;2.03;;
11319;SDS011;5715;48.234;14.320;2023-01-29T11:13:07;1.43;;;1.33;;
11319;SDS011;5715;48.234;14.320;2023-01-29T11:16:02;2.50;;;1.73;;
11319;SDS011;5715;48.234;14.320;2023-01-29T11:18:55;2.70;;;1.30;;
11319;SDS011;5715;48.234;14.320;2023-01-29T11:24:44;1.60;;;1.50;;
11319;SDS011;5715;48.234;14.320;2023-01-29T11:27:56;3.43;;;1.83;;
11319;SDS011;5715;48.234;14.320;2023-01-29T11:30:47;1.50;;;1.40;;
11319;SDS011;5715;48.234;14.320;2023-01-29T11:33:36;1.77;;;1.67;;
11319;SDS011;5715;48.234;14.320;2023-01-29T11:39:24;5.40;;;2.30;;
11319;SDS011;5715;48.234;14.320;2023-01-29T11:42:18;4.47;;;2.40;;
11319;SDS011;5715;48.234;14.320;2023-01-29T11:45:23;5.27;;;1.73;;
11319;SDS011;5715;48.234;14.320;2023-01-29T11:48:20;2.53;;;2.07;;
11319;SDS011;5715;48.234;14.320;2023-01-29T11:51:27;2.10;;;1.93;;
11319;SDS011;5715;48.234;14.320;2023-01-29T11:54:16;2.57;;;2.07;;
11319;SDS011;5715;48.234;14.320;2023-01-29T11:57:13;3.37;;;2.37;;
11319;SDS011;5715;48.234;14.320;2023-01-29T12:00:21;3.27;;;2.10;;
11319;SDS011;5715;48.234;14.320;2023-01-29T12:06:11;2.10;;;1.80;;
11319;SDS011;5715;48.234;14.320;2023-01-29T12:09:13;6.17;;;2.23;;
11319;SDS011;5715;48.234;14.320;2023-01-29T12:12:15;2.90;;;2.23;;
11319;SDS011;5715;48.234;14.320;2023-01-29T12:15:27;2.30;;;1.77;;
11319;SDS011;5715;48.234;14.320;2023-01-29T12:18:20;1.90;;;1.77;;
11319;SDS011;5715;48.234;14.320;2023-01-29T12:21:52;3.73;;;2.30;;
11319;SDS011;5715;48.234;14.320;2023-01-29T12:34:41;1.87;;;1.77;;
11319;SDS011;5715;48.234;14.320;2023-01-29T12:37:53;1.80;;;1.70;;
11319;SDS011;5715;48.234;14.320;2023-01-29T12:40:49;3.00;;;2.20;;
11319;SDS011;5715;48.234;14.320;2023-01-29T12:43:47;1.97;;;1.87;;
11319;SDS011;5715;48.234;14.320;2023-01-29T12:46:46;1.97;;;1.70;;
11319;SDS011;5715;48.234;14.320;2023-01-29T12:49:42;2.17;;;1.70;;
11319;SDS011;5715;48.234;14.320;2023-01-29T12:53:00;2.30;;;2.10;;
11319;SDS011;5715;48.234;14.320;2023-01-29T12:56:54;2.30;;;1.90;;
11319;SDS011;5715;48.234;14.320;2023-01-29T12:59:42;1.67;;;1.57;;
11319;SDS011;5715;48.234;14.320;2023-01-29T13:02:37;3.60;;;2.57;;
11319;SDS011;5715;48.234;14.320;2023-01-29T13:05:46;2.40;;;2.17;;
11319;SDS011;5715;48.234;14.320;2023-01-29T13:08:44;1.97;;;1.87;;
11319;SDS011;5715;48.234;14.320;2023-01-29T13:14:58;2.50;;;2.00;;
11319;SDS011;5715;48.234;14.320;2023-01-29T13:17:52;2.20;;;1.47;;
11319;SDS011;5715;48.234;14.320;2023-01-29T13:20:53;6.23;;;2.77;;
11319;SDS011;5715;48.234;14.320;2023-01-29T13:23:44;2.77;;;2.50;;
11319;SDS011;5715;48.234;14.320;2023-01-29T13:26:46;2.63;;;2.00;;
11319;SDS011;5715;48.234;14.320;2023-01-29T13:29:35;2.17;;;1.97;;
11319;SDS011;5715;48.234;14.320;2023-01-29T13:32:28;1.67;;;1.57;;
11319;SDS011;5715;48.234;14.320;2023-01-29T13:35:18;2.60;;;1.90;;
11319;SDS011;5715;48.234;14.320;2023-01-29T13:38:25;2.13;;;1.63;;
11319;SDS011;5715;48.234;14.320;2023-01-29T13:41:18;3.40;;;2.23;;
11319;SDS011;5715;48.234;14.320;2023-01-29T13:44:23;4.93;;;2.40;;
11319;SDS011;5715;48.234;14.320;2023-01-29T13:47:28;2.60;;;2.30;;
11319;SDS011;5715;48.234;14.320;2023-01-29T13:50:23;3.20;;;2.20;;
11319;SDS011;5715;48.234;14.320;2023-01-29T13:53:20;2.97;;;2.47;;
11319;SDS011;5715;48.234;14.320;2023-01-29T13:56:27;2.10;;;1.90;;
11319;SDS011;5715;48.234;14.320;2023-01-29T13:59:22;3.47;;;2.57;;
11319;SDS011;5715;48.234;14.320;2023-01-29T14:02:36;5.17;;;2.33;;
11319;SDS011;5715;48.234;14.320;2023-01-29T14:08:44;1.90;;;1.80;;
11319;SDS011;5715;48.234;14.320;2023-01-29T14:11:33;3.60;;;2.20;;
11319;SDS011;5715;48.234;14.320;2023-01-29T14:18:18;2.13;;;1.83;;
11319;SDS011;5715;48.234;14.320;2023-01-29T14:24:18;2.33;;;2.10;;
11319;SDS011;5715;48.234;14.320;2023-01-29T14:27:18;2.77;;;2.20;;
11319;SDS011;5715;48.234;14.320;2023-01-29T14:30:12;2.27;;;2.07;;
11319;SDS011;5715;48.234;14.320;2023-01-29T14:33:04;2.27;;;2.07;;
11319;SDS011;5715;48.234;14.320;2023-01-29T14:36:10;2.30;;;1.87;;
11319;SDS011;5715;48.234;14.320;2023-01-29T14:39:00;1.50;;;1.40;;
11319;SDS011;5715;48.234;14.320;2023-01-29T14:41:48;1.40;;;1.30;;
11319;SDS011;5715;48.234;14.320;2023-01-29T14:50:42;3.57;;;2.60;;
11319;SDS011;5715;48.234;14.320;2023-01-29T14:53:57;2.53;;;2.33;;
11319;SDS011;5715;48.234;14.320;2023-01-29T14:56:57;2.33;;;2.13;;
11319;SDS011;5715;48.234;14.320;2023-01-29T15:00:01;2.20;;;2.00;;
11319;SDS011;5715;48.234;14.320;2023-01-29T15:03:11;1.53;;;1.43;;
11319;SDS011;5715;48.234;14.320;2023-01-29T15:06:40;2.03;;;1.83;;
11319;SDS011;5715;48.234;14.320;2023-01-29T15:10:13;3.80;;;2.17;;
11319;SDS011;5715;48.234;14.320;2023-01-29T15:13:18;1.77;;;1.63;;
11319;SDS011;5715;48.234;14.320;2023-01-29T15:20:23;1.50;;;1.40;;
11319;SDS011;5715;48.234;14.320;2023-01-29T15:26:18;1.77;;;1.43;;
11319;SDS011;5715;48.234;14.320;2023-01-29T15:29:20;3.30;;;2.47;;
11319;SDS011;5715;48.234;14.320;2023-01-29T15:32:19;2.07;;;1.87;;
11319;SDS011;5715;48.234;14.320;2023-01-29T15:38:18;3.47;;;2.53;;
11319;SDS011;5715;48.234;14.320;2023-01-29T15:41:18;2.03;;;1.83;;
11319;SDS011;5715;48.234;14.320;2023-01-29T15:44:13;6.03;;;5.53;;
11319;SDS011;5715;48.234;14.320;2023-01-29T15:47:04;1.50;;;1.40;;
11319;SDS011;5715;48.234;14.320;2023-01-29T15:49:55;2.53;;;2.33;;
11319;SDS011;5715;48.234;14.320;2023-01-29T15:52:43;3.10;;;2.20;;
11319;SDS011;5715;48.234;14.320;2023-01-29T15:55:38;2.37;;;2.17;;
11319;SDS011;5715;48.234;14.320;2023-01-29T15:58:29;4.17;;;2.53;;
11319;SDS011;5715;48.234;14.320;2023-01-29T16:01:18;3.57;;;2.33;;
11319;SDS011;5715;48.234;14.320;2023-01-29T16:04:08;2.43;;;1.83;;
11319;SDS011;5715;48.234;14.320;2023-01-29T16:07:17;2.63;;;1.87;;
11319;SDS011;5715;48.234;14.320;2023-01-29T16:10:10;2.50;;;1.80;;
11319;SDS011;5715;48.234;14.320;2023-01-29T16:13:05;2.70;;;2.50;;
11319;SDS011;5715;48.234;14.320;2023-01-29T16:16:29;2.57;;;1.77;;
11319;SDS011;5715;48.234;14.320;2023-01-29T16:19:27;3.93;;;2.03;;
11319;SDS011;5715;48.234;14.320;2023-01-29T16:22:15;2.37;;;2.10;;
11319;SDS011;5715;48.234;14.320;2023-01-29T16:25:04;10.80;;;2.93;;
11319;SDS011;5715;48.234;14.320;2023-01-29T16:27:57;2.33;;;2.13;;
11319;SDS011;5715;48.234;14.320;2023-01-29T16:30:56;3.00;;;2.40;;
11319;SDS011;5715;48.234;14.320;2023-01-29T16:33:49;3.07;;;2.47;;
11319;SDS011;5715;48.234;14.320;2023-01-29T16:36:39;2.47;;;2.27;;
11319;SDS011;5715;48.234;14.320;2023-01-29T16:39:34;7.40;;;3.00;;
11319;SDS011;5715;48.234;14.320;2023-01-29T16:42:29;3.60;;;2.87;;
11319;SDS011;5715;48.234;14.320;2023-01-29T16:45:24;3.33;;;2.57;;
11319;SDS011;5715;48.234;14.320;2023-01-29T16:48:23;3.57;;;3.27;;
11319;SDS011;5715;48.234;14.320;2023-01-29T16:51:21;3.30;;;2.87;;
11319;SDS011;5715;48.234;14.320;2023-01-29T16:54:14;8.97;;;2.87;;
11319;SDS011;5715;48.234;14.320;2023-01-29T16:57:05;2.97;;;2.67;;
11319;SDS011;5715;48.234;14.320;2023-01-29T17:00:05;5.13;;;3.07;;
11319;SDS011;5715;48.234;14.320;2023-01-29T17:03:04;4.17;;;2.77;;
11319;SDS011;5715;48.234;14.320;2023-01-29T17:05:53;3.47;;;3.17;;
11319;SDS011;5715;48.234;14.320;2023-01-29T17:08:41;2.80;;;2.57;;
11319;SDS011;5715;48.234;14.320;2023-01-29T17:11:35;2.90;;;2.47;;
11319;SDS011;5715;48.234;14.320;2023-01-29T17:14:28;3.37;;;3.03;;
11319;SDS011;5715;48.234;14.320;2023-01-29T17:17:19;3.77;;;3.43;;
11319;SDS011;5715;48.234;14.320;2023-01-29T17:20:14;5.53;;;2.97;;
11319;SDS011;5715;48.234;14.320;2023-01-29T17:23:02;4.13;;;3.53;;
11319;SDS011;5715;48.234;14.320;2023-01-29T17:25:50;4.23;;;3.10;;
11319;SDS011;5715;48.234;14.320;2023-01-29T17:28:38;5.20;;;2.50;;
11319;SDS011;5715;48.234;14.320;2023-01-29T17:31:29;2.93;;;2.53;;
11319;SDS011;5715;48.234;14.320;2023-01-29T17:34:17;6.37;;;2.90;;
11319;SDS011;5715;48.234;14.320;2023-01-29T17:37:05;3.53;;;2.27;;
11319;SDS011;5715;48.234;14.320;2023-01-29T17:39:58;2.57;;;2.37;;
11319;SDS011;5715;48.234;14.320;2023-01-29T17:42:49;4.23;;;2.73;;
11319;SDS011;5715;48.234;14.320;2023-01-29T17:45:38;5.63;;;3.30;;
11319;SDS011;5715;48.234;14.320;2023-01-29T17:48:27;2.73;;;2.50;;
11319;SDS011;5715;48.234;14.320;2023-01-29T17:51:16;3.57;;;2.83;;
11319;SDS011;5715;48.234;14.320;2023-01-29T17:54:04;3.77;;;2.77;;
11319;SDS011;5715;48.234;14.320;2023-01-29T17:56:52;3.87;;;2.73;;
11319;SDS011;5715;48.234;14.320;2023-01-29T17:59:40;2.00;;;1.90;;
11319;SDS011;5715;48.234;14.320;2023-01-29T18:02:29;5.33;;;2.63;;
11319;SDS011;5715;48.234;14.320;2023-01-29T18:05:17;3.50;;;3.23;;
11319;SDS011;5715;48.234;14.320;2023-01-29T18:08:07;3.17;;;2.63;;
11319;SDS011;5715;48.234;14.320;2023-01-29T18:11:14;4.63;;;3.23;;
11319;SDS011;5715;48.234;14.320;2023-01-29T18:14:02;3.33;;;3.03;;
11319;SDS011;5715;48.234;14.320;2023-01-29T18:17:00;3.43;;;3.13;;
11319;SDS011;5715;48.234;14.320;2023-01-29T18:19:47;8.57;;;4.67;;
11319;SDS011;5715;48.234;14.320;2023-01-29T18:22:35;2.57;;;2.20;;
11319;SDS011;5715;48.234;14.320;2023-01-29T18:25:23;3.00;;;2.40;;
11319;SDS011;5715;48.234;14.320;2023-01-29T18:28:11;3.40;;;3.10;;
11319;SDS011;5715;48.234;14.320;2023-01-29T18:31:03;4.23;;;3.83;;
11319;SDS011;5715;48.234;14.320;2023-01-29T18:33:51;2.50;;;2.30;;
11319;SDS011;5715;48.234;14.320;2023-01-29T18:36:39;4.13;;;3.47;;
11319;SDS011;5715;48.234;14.320;2023-01-29T18:39:26;3.60;;;3.30;;
11319;SDS011;5715;48.234;14.320;2023-01-29T18:42:14;2.93;;;2.40;;
11319;SDS011;5715;48.234;14.320;2023-01-29T18:45:03;3.03;;;2.70;;
11319;SDS011;5715;48.234;14.320;2023-01-29T18:47:51;5.07;;;4.27;;
11319;SDS011;5715;48.234;14.320;2023-01-29T18:50:39;4.10;;;3.17;;
11319;SDS011;5715;48.234;14.320;2023-01-29T18:53:26;19.20;;;3.60;;
11319;SDS011;5715;48.234;14.320;2023-01-29T18:56:14;4.53;;;4.07;;
11319;SDS011;5715;48.234;14.320;2023-01-29T18:59:02;4.07;;;3.77;;
11319;SDS011;5715;48.234;14.320;2023-01-29T19:01:52;6.33;;;4.30;;
11319;SDS011;5715;48.234;14.320;2023-01-29T19:04:39;4.17;;;2.83;;
11319;SDS011;5715;48.234;14.320;2023-01-29T19:07:28;3.87;;;2.93;;
11319;SDS011;5715;48.234;14.320;2023-01-29T19:10:16;5.17;;;2.93;;
11319;SDS011;5715;48.234;14.320;2023-01-29T19:13:04;4.37;;;3.27;;
11319;SDS011;5715;48.234;14.320;2023-01-29T19:15:53;3.87;;;3.10;;
11319;SDS011;5715;48.234;14.320;2023-01-29T19:18:40;16.07;;;3.73;;
11319;SDS011;5715;48.234;14.320;2023-01-29T19:21:29;6.43;;;4.60;;
11319;SDS011;5715;48.234;14.320;2023-01-29T19:24:21;5.00;;;3.80;;
11319;SDS011;5715;48.234;14.320;2023-01-29T19:27:09;5.30;;;4.80;;
11319;SDS011;5715;48.234;14.320;2023-01-29T19:29:58;7.27;;;4.30;;
11319;SDS011;5715;48.234;14.320;2023-01-29T19:32:45;6.70;;;4.27;;